KPGV/PGV METAR and TAF weather

Enter ICAO airport designator
Station Type Date Time Source
KPGV METAR 2018/12/18 19:10 UTC NOAA

KPGV 181910Z AUTO 32003KT 10SM CLR 11/M01 A3015 RMK AO2


Station Type Date Time Source
KPGV Decoded METAR 2018/12/18 19:10 UTC NOAA

Pitt-Greenville Airport, NC, United States (KPGV) 35-38N 077-24W
Dec 18, 2018 - 02:10 PM EST / 2018.12.18 1910 UTC
Wind: from the NW (320 degrees) at 3 MPH (3 KT):0
Visibility: 10 mile(s):0
Sky conditions: clear
Temperature: 51 F (11 C)
Dew Point: 30 F (-1 C)
Relative Humidity: 43%
Pressure (altimeter): 30.15 in. Hg (1020 hPa)
ob: KPGV 181910Z AUTO 32003KT 10SM CLR 11/M01 A3015 RMK AO2
cycle: 19

Station Type Date Time Source
KPGV TAF 2018/12/18 18:40 UTC NOAA

TAF KPGV 181737Z 1818/1918 36007KT P6SM SKC
FM182300 VRB02KT P6SM SKC
FM191400 10004KT P6SM SKC
AMD LTD TO CLD VIS AND WIND


Example: see airport list